This is the latest recevied weather packets stored in our database for station/object F4FTJ-13. If no packets are shown the sender has not sent any weather packets the latest 10 day(s).
| Time | Temp. | Humidity | Pressure | Rain* | Wind** | Luminosity | Snow |
|---|---|---|---|---|---|---|---|
| 1777726829 | 17.22° C | 91% | 1016.7 hPa | 0.25 mm | - | - | - |
| 1777725330 | 17.22° C | 89% | 1016.6 hPa | 0.25 mm | - | - | - |
| 1777724429 | 18.33° C | 77% | 1016.9 hPa | 0 mm | - | - | - |
| 1777723529 | 19.44° C | 66% | 1016.7 hPa | 0 mm | - | - | - |
| 1777701930 | 11.11° C | 99% | 1018.3 hPa | 0.25 mm | - | - | - |
| 1777700430 | 10° C | 99% | 1018.4 hPa | 0 mm | - | - | - |
| 1777696229 | 10° C | 99% | 1018.4 hPa | 0 mm | - | - | - |
| 1777695929 | 9.44° C | 99% | 1018.4 hPa | 0 mm | - | - | - |
| 1777694129 | 10° C | 99% | 1018.8 hPa | 0 mm | - | - | - |
| 1777690829 | 10° C | 99% | 1018.8 hPa | 0 mm | - | - | - |
| 1777690530 | 10.56° C | 99% | 1018.7 hPa | 0 mm | - | - | - |
| 1777690230 | 10.56° C | 99% | 1018.7 hPa | 0 mm | - | - | - |
| 1777689329 | 10° C | 99% | 1018.8 hPa | 0 mm | - | - | - |
| 1777685729 | 10° C | 99% | 1019.3 hPa | 0 mm | - | - | - |
| 1777683929 | 10.56° C | 99% | 1019.7 hPa | 0 mm | - | - | - |
| 1777683630 | 10.56° C | 99% | 1019.8 hPa | 0 mm | - | - | - |
| 1777682430 | 10.56° C | 99% | 1019.8 hPa | 0 mm | - | - | - |
| 1777680630 | 11.11° C | 99% | 1020.2 hPa | 0 mm | - | - | - |
| 1777676430 | 12.78° C | 99% | 1020.2 hPa | 0 mm | - | - | - |
| 1777672229 | 13.89° C | 99% | 1020.1 hPa | 0 mm | - | - | - |
| 1777669230 | 13.89° C | 99% | 1020.4 hPa | 0 mm | - | - | - |
| 1777666229 | 14.44° C | 98% | 1020.6 hPa | 0 mm | - | - | - |
| 1777664729 | 15° C | 97% | 1020.4 hPa | 0 mm | - | - | - |
| 1777664429 | 15° C | 97% | 1020.3 hPa | 0 mm | - | - | - |
| 1777663829 | 15.56° C | 97% | 1020.2 hPa | 0 mm | - | - | - |
* Rain latest hour (hover to see other rain measurements)
** Current wind speed in m/s (hover to see current wind gust speed)